sensor_id;sensor_type;location;lat;lon;timestamp;temperature;humidity
48836;DHT22;62581;47.342;7.908;2023-06-22T00:01:11;21.30;99.90
48836;DHT22;62581;47.342;7.908;2023-06-22T00:03:38;21.30;99.90
48836;DHT22;62581;47.342;7.908;2023-06-22T00:06:04;21.20;99.90
48836;DHT22;62581;47.342;7.908;2023-06-22T00:08:33;21.10;99.90
48836;DHT22;62581;47.342;7.908;2023-06-22T00:10:59;21.10;99.90
48836;DHT22;62581;47.342;7.908;2023-06-22T00:13:26;21.20;99.90
48836;DHT22;62581;47.342;7.908;2023-06-22T00:15:53;21.20;99.90
48836;DHT22;62581;47.342;7.908;2023-06-22T00:18:20;21.20;99.90
48836;DHT22;62581;47.342;7.908;2023-06-22T00:20:46;21.10;99.90
48836;DHT22;62581;47.342;7.908;2023-06-22T00:23:13;21.00;99.90
48836;DHT22;62581;47.342;7.908;2023-06-22T00:25:42;21.00;99.90
48836;DHT22;62581;47.342;7.908;2023-06-22T00:28:09;20.90;99.90
48836;DHT22;62581;47.342;7.908;2023-06-22T00:30:36;20.90;99.90
48836;DHT22;62581;47.342;7.908;2023-06-22T00:33:03;20.80;99.90
48836;DHT22;62581;47.342;7.908;2023-06-22T00:35:32;20.70;99.90
48836;DHT22;62581;47.342;7.908;2023-06-22T00:38:00;20.70;99.90
48836;DHT22;62581;47.342;7.908;2023-06-22T00:40:27;20.60;99.90
48836;DHT22;62581;47.342;7.908;2023-06-22T00:42:55;20.60;99.90
48836;DHT22;62581;47.342;7.908;2023-06-22T00:45:22;20.50;99.90
48836;DHT22;62581;47.342;7.908;2023-06-22T00:47:49;20.50;99.90
48836;DHT22;62581;47.342;7.908;2023-06-22T00:50:18;20.50;99.90
48836;DHT22;62581;47.342;7.908;2023-06-22T00:52:46;20.50;99.90
48836;DHT22;62581;47.342;7.908;2023-06-22T00:55:14;20.50;99.90
48836;DHT22;62581;47.342;7.908;2023-06-22T00:57:43;20.50;99.90
48836;DHT22;62581;47.342;7.908;2023-06-22T01:00:12;20.50;99.90
48836;DHT22;62581;47.342;7.908;2023-06-22T01:02:44;20.40;99.90
48836;DHT22;62581;47.342;7.908;2023-06-22T01:05:12;20.50;99.90
48836;DHT22;62581;47.342;7.908;2023-06-22T01:07:41;20.60;99.90
48836;DHT22;62581;47.342;7.908;2023-06-22T01:10:12;20.70;99.90
48836;DHT22;62581;47.342;7.908;2023-06-22T01:12:42;20.60;99.90
48836;DHT22;62581;47.342;7.908;2023-06-22T01:15:13;20.60;99.90
48836;DHT22;62581;47.342;7.908;2023-06-22T01:17:43;20.50;99.90
48836;DHT22;62581;47.342;7.908;2023-06-22T01:20:10;20.50;99.90
48836;DHT22;62581;47.342;7.908;2023-06-22T01:22:40;20.50;99.90
48836;DHT22;62581;47.342;7.908;2023-06-22T01:25:11;20.50;99.90
48836;DHT22;62581;47.342;7.908;2023-06-22T01:27:40;20.50;99.90
48836;DHT22;62581;47.342;7.908;2023-06-22T01:30:14;20.50;99.90
48836;DHT22;62581;47.342;7.908;2023-06-22T01:32:42;20.40;99.90
48836;DHT22;62581;47.342;7.908;2023-06-22T01:35:09;20.40;99.90
48836;DHT22;62581;47.342;7.908;2023-06-22T01:37:36;20.40;99.90
48836;DHT22;62581;47.342;7.908;2023-06-22T01:40:04;20.30;99.90
48836;DHT22;62581;47.342;7.908;2023-06-22T01:42:31;20.30;99.90
48836;DHT22;62581;47.342;7.908;2023-06-22T01:44:58;20.20;99.90
48836;DHT22;62581;47.342;7.908;2023-06-22T01:47:27;20.20;99.90
48836;DHT22;62581;47.342;7.908;2023-06-22T01:49:54;20.10;99.90
48836;DHT22;62581;47.342;7.908;2023-06-22T01:52:21;20.00;99.90
48836;DHT22;62581;47.342;7.908;2023-06-22T01:54:47;19.90;99.90
48836;DHT22;62581;47.342;7.908;2023-06-22T01:57:14;19.90;99.90
48836;DHT22;62581;47.342;7.908;2023-06-22T01:59:43;19.90;99.90
48836;DHT22;62581;47.342;7.908;2023-06-22T02:02:15;19.90;99.90
48836;DHT22;62581;47.342;7.908;2023-06-22T02:04:46;19.90;99.90
48836;DHT22;62581;47.342;7.908;2023-06-22T02:07:13;19.90;99.90
48836;DHT22;62581;47.342;7.908;2023-06-22T02:09:41;19.90;99.90
48836;DHT22;62581;47.342;7.908;2023-06-22T02:12:10;19.80;99.90
48836;DHT22;62581;47.342;7.908;2023-06-22T02:14:37;19.80;99.90
48836;DHT22;62581;47.342;7.908;2023-06-22T02:17:05;19.80;99.90
48836;DHT22;62581;47.342;7.908;2023-06-22T02:19:35;19.80;99.90
48836;DHT22;62581;47.342;7.908;2023-06-22T02:22:03;19.80;99.90
48836;DHT22;62581;47.342;7.908;2023-06-22T02:24:30;19.70;99.90
48836;DHT22;62581;47.342;7.908;2023-06-22T02:26:58;19.70;99.90
48836;DHT22;62581;47.342;7.908;2023-06-22T02:29:25;19.70;99.90
48836;DHT22;62581;47.342;7.908;2023-06-22T02:31:53;19.70;99.90
48836;DHT22;62581;47.342;7.908;2023-06-22T02:34:20;19.70;99.90
48836;DHT22;62581;47.342;7.908;2023-06-22T02:36:47;19.70;99.90
48836;DHT22;62581;47.342;7.908;2023-06-22T02:39:19;19.60;99.90
48836;DHT22;62581;47.342;7.908;2023-06-22T02:41:47;19.60;99.90
48836;DHT22;62581;47.342;7.908;2023-06-22T02:44:14;19.60;99.90
48836;DHT22;62581;47.342;7.908;2023-06-22T02:46:41;19.70;99.90
48836;DHT22;62581;47.342;7.908;2023-06-22T02:49:08;19.60;99.90
48836;DHT22;62581;47.342;7.908;2023-06-22T02:51:34;19.60;99.90
48836;DHT22;62581;47.342;7.908;2023-06-22T02:54:01;19.50;99.90
48836;DHT22;62581;47.342;7.908;2023-06-22T02:56:29;19.50;99.90
48836;DHT22;62581;47.342;7.908;2023-06-22T02:58:56;19.50;99.90
48836;DHT22;62581;47.342;7.908;2023-06-22T03:01:26;19.50;99.90
48836;DHT22;62581;47.342;7.908;2023-06-22T03:03:53;19.50;99.90
48836;DHT22;62581;47.342;7.908;2023-06-22T03:06:20;19.50;99.90
48836;DHT22;62581;47.342;7.908;2023-06-22T03:08:49;19.40;99.90
48836;DHT22;62581;47.342;7.908;2023-06-22T03:11:16;19.40;99.90
48836;DHT22;62581;47.342;7.908;2023-06-22T03:13:44;19.40;99.90
48836;DHT22;62581;47.342;7.908;2023-06-22T03:16:11;19.40;99.90
48836;DHT22;62581;47.342;7.908;2023-06-22T03:18:38;19.40;99.90
48836;DHT22;62581;47.342;7.908;2023-06-22T03:21:05;19.40;99.90
48836;DHT22;62581;47.342;7.908;2023-06-22T03:23:32;19.40;99.90
48836;DHT22;62581;47.342;7.908;2023-06-22T03:25:58;19.40;99.90
48836;DHT22;62581;47.342;7.908;2023-06-22T03:28:25;19.30;99.90
48836;DHT22;62581;47.342;7.908;2023-06-22T03:30:53;19.30;99.90
48836;DHT22;62581;47.342;7.908;2023-06-22T03:33:20;19.20;99.90
48836;DHT22;62581;47.342;7.908;2023-06-22T03:35:47;19.30;99.90
48836;DHT22;62581;47.342;7.908;2023-06-22T03:38:15;19.30;99.90
48836;DHT22;62581;47.342;7.908;2023-06-22T03:40:42;19.20;99.90
48836;DHT22;62581;47.342;7.908;2023-06-22T03:43:08;19.20;99.90
48836;DHT22;62581;47.342;7.908;2023-06-22T03:45:35;19.20;99.90
48836;DHT22;62581;47.342;7.908;2023-06-22T03:48:04;19.20;99.90
48836;DHT22;62581;47.342;7.908;2023-06-22T03:50:30;19.20;99.90
48836;DHT22;62581;47.342;7.908;2023-06-22T03:52:57;19.20;99.90
48836;DHT22;62581;47.342;7.908;2023-06-22T03:55:24;19.20;99.90
48836;DHT22;62581;47.342;7.908;2023-06-22T03:57:51;19.20;99.90
48836;DHT22;62581;47.342;7.908;2023-06-22T04:00:18;19.20;99.90
48836;DHT22;62581;47.342;7.908;2023-06-22T04:02:45;19.30;99.90
48836;DHT22;62581;47.342;7.908;2023-06-22T04:05:13;19.30;99.90
48836;DHT22;62581;47.342;7.908;2023-06-22T04:07:40;19.40;99.90
48836;DHT22;62581;47.342;7.908;2023-06-22T04:10:07;19.40;99.90
48836;DHT22;62581;47.342;7.908;2023-06-22T04:12:33;19.40;99.90
48836;DHT22;62581;47.342;7.908;2023-06-22T04:15:00;19.40;99.90
48836;DHT22;62581;47.342;7.908;2023-06-22T04:17:27;19.50;99.90
48836;DHT22;62581;47.342;7.908;2023-06-22T04:19:54;19.50;99.90
48836;DHT22;62581;47.342;7.908;2023-06-22T04:22:22;19.50;99.90
48836;DHT22;62581;47.342;7.908;2023-06-22T04:24:48;19.50;99.90
48836;DHT22;62581;47.342;7.908;2023-06-22T04:27:18;19.60;99.90
48836;DHT22;62581;47.342;7.908;2023-06-22T04:29:45;19.60;99.90
48836;DHT22;62581;47.342;7.908;2023-06-22T04:32:14;19.60;99.90
48836;DHT22;62581;47.342;7.908;2023-06-22T04:34:41;19.70;99.90
48836;DHT22;62581;47.342;7.908;2023-06-22T04:37:07;19.70;99.90
48836;DHT22;62581;47.342;7.908;2023-06-22T04:39:36;19.70;99.90
48836;DHT22;62581;47.342;7.908;2023-06-22T04:42:03;19.70;99.90
48836;DHT22;62581;47.342;7.908;2023-06-22T04:44:29;19.80;99.90
48836;DHT22;62581;47.342;7.908;2023-06-22T04:46:57;19.90;99.90
48836;DHT22;62581;47.342;7.908;2023-06-22T04:49:25;19.80;99.90
48836;DHT22;62581;47.342;7.908;2023-06-22T04:51:58;19.90;99.90
48836;DHT22;62581;47.342;7.908;2023-06-22T04:54:25;20.00;99.90
48836;DHT22;62581;47.342;7.908;2023-06-22T04:56:53;20.00;99.90
48836;DHT22;62581;47.342;7.908;2023-06-22T04:59:24;20.00;99.90
48836;DHT22;62581;47.342;7.908;2023-06-22T05:01:54;20.10;99.90
48836;DHT22;62581;47.342;7.908;2023-06-22T05:04:21;20.10;99.90
48836;DHT22;62581;47.342;7.908;2023-06-22T05:06:48;20.20;99.90
48836;DHT22;62581;47.342;7.908;2023-06-22T05:09:15;20.20;99.90
48836;DHT22;62581;47.342;7.908;2023-06-22T05:11:42;20.30;99.90
48836;DHT22;62581;47.342;7.908;2023-06-22T05:14:10;20.30;99.90
48836;DHT22;62581;47.342;7.908;2023-06-22T05:16:37;20.40;99.90
48836;DHT22;62581;47.342;7.908;2023-06-22T05:19:04;20.40;99.90
48836;DHT22;62581;47.342;7.908;2023-06-22T05:21:31;20.50;99.90
48836;DHT22;62581;47.342;7.908;2023-06-22T05:23:58;20.60;99.90
48836;DHT22;62581;47.342;7.908;2023-06-22T05:26:28;20.60;99.90
48836;DHT22;62581;47.342;7.908;2023-06-22T05:28:56;20.70;99.90
48836;DHT22;62581;47.342;7.908;2023-06-22T05:31:24;20.80;99.90
48836;DHT22;62581;47.342;7.908;2023-06-22T05:33:51;20.80;99.90
48836;DHT22;62581;47.342;7.908;2023-06-22T05:36:18;20.90;99.90
48836;DHT22;62581;47.342;7.908;2023-06-22T05:38:46;20.90;99.90
48836;DHT22;62581;47.342;7.908;2023-06-22T05:41:13;20.90;99.90
48836;DHT22;62581;47.342;7.908;2023-06-22T05:43:40;20.90;99.90
48836;DHT22;62581;47.342;7.908;2023-06-22T05:46:07;21.00;99.90
48836;DHT22;62581;47.342;7.908;2023-06-22T05:48:35;21.10;99.90
48836;DHT22;62581;47.342;7.908;2023-06-22T05:51:02;21.20;99.90
48836;DHT22;62581;47.342;7.908;2023-06-22T05:53:28;21.20;99.90
48836;DHT22;62581;47.342;7.908;2023-06-22T05:55:55;21.30;99.90
48836;DHT22;62581;47.342;7.908;2023-06-22T05:58:22;21.40;99.90
48836;DHT22;62581;47.342;7.908;2023-06-22T06:00:49;21.50;99.90
48836;DHT22;62581;47.342;7.908;2023-06-22T06:03:15;21.60;99.90
48836;DHT22;62581;47.342;7.908;2023-06-22T06:05:44;21.70;99.90
48836;DHT22;62581;47.342;7.908;2023-06-22T06:08:11;21.70;99.90
48836;DHT22;62581;47.342;7.908;2023-06-22T06:10:38;21.80;99.90
48836;DHT22;62581;47.342;7.908;2023-06-22T06:13:05;21.80;99.90
48836;DHT22;62581;47.342;7.908;2023-06-22T06:15:32;21.90;99.90
48836;DHT22;62581;47.342;7.908;2023-06-22T06:17:59;21.90;99.90
48836;DHT22;62581;47.342;7.908;2023-06-22T06:20:27;22.10;99.90
48836;DHT22;62581;47.342;7.908;2023-06-22T06:22:55;22.30;99.90
48836;DHT22;62581;47.342;7.908;2023-06-22T06:25:22;22.50;99.90
48836;DHT22;62581;47.342;7.908;2023-06-22T06:27:49;22.80;99.90
48836;DHT22;62581;47.342;7.908;2023-06-22T06:30:17;23.00;99.90
48836;DHT22;62581;47.342;7.908;2023-06-22T06:32:44;23.20;99.90
48836;DHT22;62581;47.342;7.908;2023-06-22T06:35:12;23.40;99.90
48836;DHT22;62581;47.342;7.908;2023-06-22T06:37:39;23.50;99.90
48836;DHT22;62581;47.342;7.908;2023-06-22T06:40:09;23.60;99.90
48836;DHT22;62581;47.342;7.908;2023-06-22T06:42:37;23.70;99.90
48836;DHT22;62581;47.342;7.908;2023-06-22T06:45:06;23.70;99.90
48836;DHT22;62581;47.342;7.908;2023-06-22T06:47:33;23.80;99.90
48836;DHT22;62581;47.342;7.908;2023-06-22T06:49:59;23.70;99.90
48836;DHT22;62581;47.342;7.908;2023-06-22T06:52:26;23.40;99.90
48836;DHT22;62581;47.342;7.908;2023-06-22T06:54:53;23.20;99.90
48836;DHT22;62581;47.342;7.908;2023-06-22T06:57:21;23.10;99.90
48836;DHT22;62581;47.342;7.908;2023-06-22T06:59:48;23.10;99.90
48836;DHT22;62581;47.342;7.908;2023-06-22T07:02:15;23.00;99.90
48836;DHT22;62581;47.342;7.908;2023-06-22T07:04:42;22.80;99.90
48836;DHT22;62581;47.342;7.908;2023-06-22T07:07:08;22.80;99.90
48836;DHT22;62581;47.342;7.908;2023-06-22T07:09:35;22.80;99.90
48836;DHT22;62581;47.342;7.908;2023-06-22T07:12:02;22.80;99.90
48836;DHT22;62581;47.342;7.908;2023-06-22T07:14:30;22.80;99.90
48836;DHT22;62581;47.342;7.908;2023-06-22T07:16:57;23.00;99.90
48836;DHT22;62581;47.342;7.908;2023-06-22T07:19:24;23.20;99.90
48836;DHT22;62581;47.342;7.908;2023-06-22T07:21:51;23.40;99.90
48836;DHT22;62581;47.342;7.908;2023-06-22T07:24:19;23.70;99.90
48836;DHT22;62581;47.342;7.908;2023-06-22T07:26:46;23.90;99.90
48836;DHT22;62581;47.342;7.908;2023-06-22T07:29:13;24.00;99.90
48836;DHT22;62581;47.342;7.908;2023-06-22T07:31:41;24.20;99.90
48836;DHT22;62581;47.342;7.908;2023-06-22T07:34:08;24.30;99.90
48836;DHT22;62581;47.342;7.908;2023-06-22T07:36:35;24.40;99.90
48836;DHT22;62581;47.342;7.908;2023-06-22T07:39:02;24.50;99.90
48836;DHT22;62581;47.342;7.908;2023-06-22T07:41:29;24.40;99.90
48836;DHT22;62581;47.342;7.908;2023-06-22T07:43:55;24.50;99.90
48836;DHT22;62581;47.342;7.908;2023-06-22T07:46:22;24.60;99.90
48836;DHT22;62581;47.342;7.908;2023-06-22T07:48:50;24.70;99.90
48836;DHT22;62581;47.342;7.908;2023-06-22T07:51:18;24.70;99.90
48836;DHT22;62581;47.342;7.908;2023-06-22T07:53:44;24.70;99.90
48836;DHT22;62581;47.342;7.908;2023-06-22T07:56:11;24.90;99.90
48836;DHT22;62581;47.342;7.908;2023-06-22T07:58:38;24.90;99.90
48836;DHT22;62581;47.342;7.908;2023-06-22T08:01:05;25.10;99.90
48836;DHT22;62581;47.342;7.908;2023-06-22T08:03:32;25.20;99.90
48836;DHT22;62581;47.342;7.908;2023-06-22T08:06:00;25.20;99.90
48836;DHT22;62581;47.342;7.908;2023-06-22T08:08:27;25.50;99.90
48836;DHT22;62581;47.342;7.908;2023-06-22T08:10:54;25.50;99.90
48836;DHT22;62581;47.342;7.908;2023-06-22T08:13:20;25.60;99.90
48836;DHT22;62581;47.342;7.908;2023-06-22T08:15:47;25.70;99.90
48836;DHT22;62581;47.342;7.908;2023-06-22T08:18:14;25.80;99.90
48836;DHT22;62581;47.342;7.908;2023-06-22T08:20:41;25.90;99.90
48836;DHT22;62581;47.342;7.908;2023-06-22T08:23:09;25.80;99.90
48836;DHT22;62581;47.342;7.908;2023-06-22T08:25:36;25.70;99.90
48836;DHT22;62581;47.342;7.908;2023-06-22T08:28:03;25.80;99.90
48836;DHT22;62581;47.342;7.908;2023-06-22T08:30:30;25.90;99.90
48836;DHT22;62581;47.342;7.908;2023-06-22T08:32:57;26.10;99.90
48836;DHT22;62581;47.342;7.908;2023-06-22T08:35:24;26.20;99.90
48836;DHT22;62581;47.342;7.908;2023-06-22T08:37:51;26.20;99.90
48836;DHT22;62581;47.342;7.908;2023-06-22T08:40:21;26.20;99.90
48836;DHT22;62581;47.342;7.908;2023-06-22T08:42:48;26.20;99.90
48836;DHT22;62581;47.342;7.908;2023-06-22T08:45:14;26.30;99.90
48836;DHT22;62581;47.342;7.908;2023-06-22T08:47:41;26.30;99.90
48836;DHT22;62581;47.342;7.908;2023-06-22T08:50:08;26.30;99.90
48836;DHT22;62581;47.342;7.908;2023-06-22T08:52:35;26.50;99.90
48836;DHT22;62581;47.342;7.908;2023-06-22T08:55:03;26.60;99.90
48836;DHT22;62581;47.342;7.908;2023-06-22T08:57:31;26.80;99.90
48836;DHT22;62581;47.342;7.908;2023-06-22T08:59:58;26.90;99.90
48836;DHT22;62581;47.342;7.908;2023-06-22T09:02:25;27.10;99.90
48836;DHT22;62581;47.342;7.908;2023-06-22T09:04:51;27.40;99.90
48836;DHT22;62581;47.342;7.908;2023-06-22T09:07:21;27.40;99.90
48836;DHT22;62581;47.342;7.908;2023-06-22T09:09:50;27.60;99.90
48836;DHT22;62581;47.342;7.908;2023-06-22T09:12:17;27.60;99.90
48836;DHT22;62581;47.342;7.908;2023-06-22T09:14:46;27.60;99.90
48836;DHT22;62581;47.342;7.908;2023-06-22T09:17:13;27.40;99.90
48836;DHT22;62581;47.342;7.908;2023-06-22T09:19:40;27.30;99.90
48836;DHT22;62581;47.342;7.908;2023-06-22T09:22:07;27.40;99.90
48836;DHT22;62581;47.342;7.908;2023-06-22T09:24:33;27.50;99.90
48836;DHT22;62581;47.342;7.908;2023-06-22T09:27:00;27.60;99.90
48836;DHT22;62581;47.342;7.908;2023-06-22T09:29:27;27.50;99.90
48836;DHT22;62581;47.342;7.908;2023-06-22T09:31:55;27.40;99.90
48836;DHT22;62581;47.342;7.908;2023-06-22T09:34:22;27.50;99.90
48836;DHT22;62581;47.342;7.908;2023-06-22T09:36:49;27.60;99.90
48836;DHT22;62581;47.342;7.908;2023-06-22T09:39:16;27.80;99.90
48836;DHT22;62581;47.342;7.908;2023-06-22T09:41:43;28.00;99.90
48836;DHT22;62581;47.342;7.908;2023-06-22T09:44:09;28.00;99.90
48836;DHT22;62581;47.342;7.908;2023-06-22T09:46:36;28.10;99.90
48836;DHT22;62581;47.342;7.908;2023-06-22T09:49:04;28.00;99.90
48836;DHT22;62581;47.342;7.908;2023-06-22T09:51:31;27.90;99.90
48836;DHT22;62581;47.342;7.908;2023-06-22T09:53:58;27.80;99.90
48836;DHT22;62581;47.342;7.908;2023-06-22T09:56:25;27.90;99.90
48836;DHT22;62581;47.342;7.908;2023-06-22T09:58:53;28.00;99.90
48836;DHT22;62581;47.342;7.908;2023-06-22T10:01:20;28.20;99.90
48836;DHT22;62581;47.342;7.908;2023-06-22T10:03:47;28.50;99.90
48836;DHT22;62581;47.342;7.908;2023-06-22T10:06:15;28.70;99.90
48836;DHT22;62581;47.342;7.908;2023-06-22T10:08:42;28.90;99.90
48836;DHT22;62581;47.342;7.908;2023-06-22T10:11:08;28.90;99.90
48836;DHT22;62581;47.342;7.908;2023-06-22T10:13:35;29.10;99.90
48836;DHT22;62581;47.342;7.908;2023-06-22T10:16:02;28.80;99.90
48836;DHT22;62581;47.342;7.908;2023-06-22T10:18:28;28.60;99.90
48836;DHT22;62581;47.342;7.908;2023-06-22T10:20:56;28.60;99.90
48836;DHT22;62581;47.342;7.908;2023-06-22T10:23:24;28.40;99.90
48836;DHT22;62581;47.342;7.908;2023-06-22T10:25:51;27.90;99.90
48836;DHT22;62581;47.342;7.908;2023-06-22T10:28:17;28.00;99.90
48836;DHT22;62581;47.342;7.908;2023-06-22T10:30:44;28.00;99.90
48836;DHT22;62581;47.342;7.908;2023-06-22T10:33:11;28.00;99.90
48836;DHT22;62581;47.342;7.908;2023-06-22T10:35:38;27.90;99.90
48836;DHT22;62581;47.342;7.908;2023-06-22T10:38:05;28.00;99.90
48836;DHT22;62581;47.342;7.908;2023-06-22T10:40:34;27.80;99.90
48836;DHT22;62581;47.342;7.908;2023-06-22T10:43:01;27.90;99.90
48836;DHT22;62581;47.342;7.908;2023-06-22T10:45:27;27.70;99.90
48836;DHT22;62581;47.342;7.908;2023-06-22T10:47:54;27.90;99.90
48836;DHT22;62581;47.342;7.908;2023-06-22T10:50:21;28.00;99.90
48836;DHT22;62581;47.342;7.908;2023-06-22T10:52:49;28.00;99.90
48836;DHT22;62581;47.342;7.908;2023-06-22T10:55:16;28.00;99.90
48836;DHT22;62581;47.342;7.908;2023-06-22T10:57:44;28.00;99.90
48836;DHT22;62581;47.342;7.908;2023-06-22T11:00:12;27.90;99.90
48836;DHT22;62581;47.342;7.908;2023-06-22T11:02:39;27.80;99.90
48836;DHT22;62581;47.342;7.908;2023-06-22T11:05:06;27.60;99.90
48836;DHT22;62581;47.342;7.908;2023-06-22T11:07:33;27.40;99.90
48836;DHT22;62581;47.342;7.908;2023-06-22T11:10:00;27.10;99.90
48836;DHT22;62581;47.342;7.908;2023-06-22T11:12:26;27.10;99.90
48836;DHT22;62581;47.342;7.908;2023-06-22T11:14:55;27.20;99.90
48836;DHT22;62581;47.342;7.908;2023-06-22T11:17:22;27.40;99.90
48836;DHT22;62581;47.342;7.908;2023-06-22T11:19:49;27.50;99.90
48836;DHT22;62581;47.342;7.908;2023-06-22T11:22:16;27.70;99.90
48836;DHT22;62581;47.342;7.908;2023-06-22T11:24:42;28.30;99.90
48836;DHT22;62581;47.342;7.908;2023-06-22T11:27:09;28.60;99.90
48836;DHT22;62581;47.342;7.908;2023-06-22T11:29:36;28.80;99.90
48836;DHT22;62581;47.342;7.908;2023-06-22T11:32:06;29.10;99.90
48836;DHT22;62581;47.342;7.908;2023-06-22T11:34:33;29.10;99.90
48836;DHT22;62581;47.342;7.908;2023-06-22T11:37:00;29.00;99.90
48836;DHT22;62581;47.342;7.908;2023-06-22T11:39:27;28.50;99.90
48836;DHT22;62581;47.342;7.908;2023-06-22T11:41:54;28.20;99.90
48836;DHT22;62581;47.342;7.908;2023-06-22T11:44:20;28.00;99.90
48836;DHT22;62581;47.342;7.908;2023-06-22T11:46:47;27.90;99.90
48836;DHT22;62581;47.342;7.908;2023-06-22T11:49:15;27.90;99.90
48836;DHT22;62581;47.342;7.908;2023-06-22T11:51:42;28.30;99.90
48836;DHT22;62581;47.342;7.908;2023-06-22T11:54:08;28.80;99.90
48836;DHT22;62581;47.342;7.908;2023-06-22T11:56:35;28.80;99.90
48836;DHT22;62581;47.342;7.908;2023-06-22T11:59:02;28.80;99.90
48836;DHT22;62581;47.342;7.908;2023-06-22T12:01:29;28.70;99.90
48836;DHT22;62581;47.342;7.908;2023-06-22T12:03:55;28.50;99.90
48836;DHT22;62581;47.342;7.908;2023-06-22T12:06:23;28.30;99.90
48836;DHT22;62581;47.342;7.908;2023-06-22T12:08:50;28.20;99.90
48836;DHT22;62581;47.342;7.908;2023-06-22T12:11:17;28.00;99.90
48836;DHT22;62581;47.342;7.908;2023-06-22T12:13:44;27.90;99.90
48836;DHT22;62581;47.342;7.908;2023-06-22T12:16:10;27.80;99.90
48836;DHT22;62581;47.342;7.908;2023-06-22T12:18:37;27.60;99.90
48836;DHT22;62581;47.342;7.908;2023-06-22T12:21:04;27.40;99.90
48836;DHT22;62581;47.342;7.908;2023-06-22T12:23:32;27.20;99.90
48836;DHT22;62581;47.342;7.908;2023-06-22T12:25:59;26.90;99.90
48836;DHT22;62581;47.342;7.908;2023-06-22T12:28:26;26.80;99.90
48836;DHT22;62581;47.342;7.908;2023-06-22T12:30:53;26.80;99.90
48836;DHT22;62581;47.342;7.908;2023-06-22T12:33:20;27.00;99.90
48836;DHT22;62581;47.342;7.908;2023-06-22T12:35:47;27.20;99.90
48836;DHT22;62581;47.342;7.908;2023-06-22T12:38:14;27.40;99.90
48836;DHT22;62581;47.342;7.908;2023-06-22T12:40:42;27.60;99.90
48836;DHT22;62581;47.342;7.908;2023-06-22T12:43:09;28.00;99.90
48836;DHT22;62581;47.342;7.908;2023-06-22T12:45:36;28.40;99.90
48836;DHT22;62581;47.342;7.908;2023-06-22T12:48:02;28.80;99.90
48836;DHT22;62581;47.342;7.908;2023-06-22T12:50:29;29.50;99.90
48836;DHT22;62581;47.342;7.908;2023-06-22T12:52:56;29.90;99.90
48836;DHT22;62581;47.342;7.908;2023-06-22T12:55:23;30.00;99.90
48836;DHT22;62581;47.342;7.908;2023-06-22T12:57:51;30.30;99.90
48836;DHT22;62581;47.342;7.908;2023-06-22T13:00:18;31.10;99.90
48836;DHT22;62581;47.342;7.908;2023-06-22T13:02:45;31.60;99.90
48836;DHT22;62581;47.342;7.908;2023-06-22T13:05:12;30.80;99.90
48836;DHT22;62581;47.342;7.908;2023-06-22T13:07:38;30.30;99.90
48836;DHT22;62581;47.342;7.908;2023-06-22T13:10:05;29.80;99.90
48836;DHT22;62581;47.342;7.908;2023-06-22T13:12:32;29.20;99.90
48836;DHT22;62581;47.342;7.908;2023-06-22T13:15:01;28.70;99.90
48836;DHT22;62581;47.342;7.908;2023-06-22T13:17:28;28.20;99.90
48836;DHT22;62581;47.342;7.908;2023-06-22T13:19:55;27.90;99.90
48836;DHT22;62581;47.342;7.908;2023-06-22T13:22:29;27.50;99.90
48836;DHT22;62581;47.342;7.908;2023-06-22T13:24:56;27.50;99.90
48836;DHT22;62581;47.342;7.908;2023-06-22T13:27:23;27.30;99.90
48836;DHT22;62581;47.342;7.908;2023-06-22T13:29:49;27.50;99.90
48836;DHT22;62581;47.342;7.908;2023-06-22T13:32:18;27.80;99.90
48836;DHT22;62581;47.342;7.908;2023-06-22T13:34:44;27.90;99.90
48836;DHT22;62581;47.342;7.908;2023-06-22T13:37:11;27.80;99.90
48836;DHT22;62581;47.342;7.908;2023-06-22T13:39:38;27.50;99.90
48836;DHT22;62581;47.342;7.908;2023-06-22T13:42:05;27.40;99.90
48836;DHT22;62581;47.342;7.908;2023-06-22T13:44:32;27.40;99.90
48836;DHT22;62581;47.342;7.908;2023-06-22T13:46:59;27.20;99.90
48836;DHT22;62581;47.342;7.908;2023-06-22T13:49:27;27.10;99.90
48836;DHT22;62581;47.342;7.908;2023-06-22T13:51:54;27.30;99.90
48836;DHT22;62581;47.342;7.908;2023-06-22T13:54:21;27.40;99.90
48836;DHT22;62581;47.342;7.908;2023-06-22T13:56:48;27.50;99.90
48836;DHT22;62581;47.342;7.908;2023-06-22T13:59:14;27.70;99.90
48836;DHT22;62581;47.342;7.908;2023-06-22T14:01:41;28.10;99.90
48836;DHT22;62581;47.342;7.908;2023-06-22T14:04:08;28.30;99.90
48836;DHT22;62581;47.342;7.908;2023-06-22T14:06:37;28.70;99.90
48836;DHT22;62581;47.342;7.908;2023-06-22T14:09:04;29.20;99.90
48836;DHT22;62581;47.342;7.908;2023-06-22T14:11:31;29.90;99.90
48836;DHT22;62581;47.342;7.908;2023-06-22T14:13:58;30.90;99.90
48836;DHT22;62581;47.342;7.908;2023-06-22T14:16:24;32.60;99.90
48836;DHT22;62581;47.342;7.908;2023-06-22T14:18:51;33.10;99.90
48836;DHT22;62581;47.342;7.908;2023-06-22T14:21:18;33.50;99.90
48836;DHT22;62581;47.342;7.908;2023-06-22T14:23:46;34.60;99.90
48836;DHT22;62581;47.342;7.908;2023-06-22T14:26:14;34.90;99.90
48836;DHT22;62581;47.342;7.908;2023-06-22T14:28:42;34.00;99.90
48836;DHT22;62581;47.342;7.908;2023-06-22T14:31:12;32.90;99.90
48836;DHT22;62581;47.342;7.908;2023-06-22T14:33:39;32.00;99.90
48836;DHT22;62581;47.342;7.908;2023-06-22T14:36:06;31.00;99.90
48836;DHT22;62581;47.342;7.908;2023-06-22T14:38:32;30.20;99.90
48836;DHT22;62581;47.342;7.908;2023-06-22T14:41:01;29.60;99.90
48836;DHT22;62581;47.342;7.908;2023-06-22T14:43:27;29.10;99.90
48836;DHT22;62581;47.342;7.908;2023-06-22T14:45:54;28.70;99.90
48836;DHT22;62581;47.342;7.908;2023-06-22T14:48:21;28.30;99.90
48836;DHT22;62581;47.342;7.908;2023-06-22T14:50:48;28.10;99.90
48836;DHT22;62581;47.342;7.908;2023-06-22T14:53:14;27.90;99.90
48836;DHT22;62581;47.342;7.908;2023-06-22T14:55:41;27.80;99.90
48836;DHT22;62581;47.342;7.908;2023-06-22T14:58:10;27.60;99.90
48836;DHT22;62581;47.342;7.908;2023-06-22T15:00:36;27.40;99.90
48836;DHT22;62581;47.342;7.908;2023-06-22T15:03:03;27.10;99.90
48836;DHT22;62581;47.342;7.908;2023-06-22T15:05:32;26.80;99.90
48836;DHT22;62581;47.342;7.908;2023-06-22T15:07:59;26.50;99.90
48836;DHT22;62581;47.342;7.908;2023-06-22T15:10:25;26.40;99.90
48836;DHT22;62581;47.342;7.908;2023-06-22T15:12:52;26.10;99.90
48836;DHT22;62581;47.342;7.908;2023-06-22T15:15:20;25.90;99.90
48836;DHT22;62581;47.342;7.908;2023-06-22T15:17:47;25.60;99.90
48836;DHT22;62581;47.342;7.908;2023-06-22T15:20:14;25.40;99.90
48836;DHT22;62581;47.342;7.908;2023-06-22T15:22:40;25.10;99.90
48836;DHT22;62581;47.342;7.908;2023-06-22T15:25:07;24.90;99.90
48836;DHT22;62581;47.342;7.908;2023-06-22T15:27:34;24.50;99.90
48836;DHT22;62581;47.342;7.908;2023-06-22T15:30:01;24.50;99.90